sensor_id;sensor_type;location;lat;lon;timestamp;P1;durP1;ratioP1;P2;durP2;ratioP2
1995;SDS011;38556;47.068;15.408;2023-07-22T00:01:51;17.50;;;15.90;;
1995;SDS011;38556;47.068;15.408;2023-07-22T00:04:19;16.50;;;15.70;;
1995;SDS011;38556;47.068;15.408;2023-07-22T00:06:46;17.63;;;16.63;;
1995;SDS011;38556;47.068;15.408;2023-07-22T00:09:15;17.47;;;16.47;;
1995;SDS011;38556;47.068;15.408;2023-07-22T00:11:42;16.33;;;15.43;;
1995;SDS011;38556;47.068;15.408;2023-07-22T00:14:09;16.33;;;15.50;;
1995;SDS011;38556;47.068;15.408;2023-07-22T00:16:37;17.10;;;16.10;;
1995;SDS011;38556;47.068;15.408;2023-07-22T00:19:04;17.83;;;16.80;;
1995;SDS011;38556;47.068;15.408;2023-07-22T00:21:33;16.10;;;15.30;;
1995;SDS011;38556;47.068;15.408;2023-07-22T00:24:00;17.07;;;16.17;;
1995;SDS011;38556;47.068;15.408;2023-07-22T00:26:29;17.27;;;16.27;;
1995;SDS011;38556;47.068;15.408;2023-07-22T00:28:56;17.23;;;16.33;;
1995;SDS011;38556;47.068;15.408;2023-07-22T00:31:23;17.17;;;16.10;;
1995;SDS011;38556;47.068;15.408;2023-07-22T00:33:50;17.40;;;16.50;;
1995;SDS011;38556;47.068;15.408;2023-07-22T00:36:17;17.90;;;17.00;;
1995;SDS011;38556;47.068;15.408;2023-07-22T00:38:44;17.07;;;16.13;;
1995;SDS011;38556;47.068;15.408;2023-07-22T00:41:12;17.57;;;16.67;;
1995;SDS011;38556;47.068;15.408;2023-07-22T00:43:41;17.37;;;16.47;;
1995;SDS011;38556;47.068;15.408;2023-07-22T00:46:08;16.90;;;16.10;;
1995;SDS011;38556;47.068;15.408;2023-07-22T00:48:35;18.87;;;17.93;;
1995;SDS011;38556;47.068;15.408;2023-07-22T00:51:03;18.27;;;17.37;;
1995;SDS011;38556;47.068;15.408;2023-07-22T00:53:31;17.90;;;16.97;;
1995;SDS011;38556;47.068;15.408;2023-07-22T00:55:58;18.77;;;17.60;;
1995;SDS011;38556;47.068;15.408;2023-07-22T00:58:25;19.90;;;18.33;;
1995;SDS011;38556;47.068;15.408;2023-07-22T01:00:54;18.73;;;17.50;;
1995;SDS011;38556;47.068;15.408;2023-07-22T01:03:21;18.57;;;17.47;;
1995;SDS011;38556;47.068;15.408;2023-07-22T01:05:48;17.43;;;16.33;;
1995;SDS011;38556;47.068;15.408;2023-07-22T01:08:17;18.23;;;17.27;;
1995;SDS011;38556;47.068;15.408;2023-07-22T01:10:44;19.20;;;17.90;;
1995;SDS011;38556;47.068;15.408;2023-07-22T01:13:11;18.10;;;17.20;;
1995;SDS011;38556;47.068;15.408;2023-07-22T01:15:39;17.63;;;16.73;;
1995;SDS011;38556;47.068;15.408;2023-07-22T01:18:08;17.93;;;17.00;;
1995;SDS011;38556;47.068;15.408;2023-07-22T01:20:36;17.63;;;16.83;;
1995;SDS011;38556;47.068;15.408;2023-07-22T01:23:05;18.63;;;17.63;;
1995;SDS011;38556;47.068;15.408;2023-07-22T01:25:33;18.60;;;17.63;;
1995;SDS011;38556;47.068;15.408;2023-07-22T01:28:00;18.63;;;17.63;;
1995;SDS011;38556;47.068;15.408;2023-07-22T01:30:28;19.20;;;18.00;;
1995;SDS011;38556;47.068;15.408;2023-07-22T01:32:55;19.03;;;17.70;;
1995;SDS011;38556;47.068;15.408;2023-07-22T01:35:22;18.67;;;17.60;;
1995;SDS011;38556;47.068;15.408;2023-07-22T01:37:51;16.90;;;16.00;;
1995;SDS011;38556;47.068;15.408;2023-07-22T01:40:19;17.73;;;16.70;;
1995;SDS011;38556;47.068;15.408;2023-07-22T01:42:48;16.80;;;16.00;;
1995;SDS011;38556;47.068;15.408;2023-07-22T01:45:16;17.90;;;16.90;;
1995;SDS011;38556;47.068;15.408;2023-07-22T01:47:43;18.57;;;17.47;;
1995;SDS011;38556;47.068;15.408;2023-07-22T01:50:10;18.23;;;17.00;;
1995;SDS011;38556;47.068;15.408;2023-07-22T01:52:38;17.97;;;16.97;;
1995;SDS011;38556;47.068;15.408;2023-07-22T01:55:06;18.53;;;17.40;;
1995;SDS011;38556;47.068;15.408;2023-07-22T01:57:38;17.87;;;16.97;;
1995;SDS011;38556;47.068;15.408;2023-07-22T02:00:06;19.37;;;17.93;;
1995;SDS011;38556;47.068;15.408;2023-07-22T02:02:36;18.63;;;17.43;;
1995;SDS011;38556;47.068;15.408;2023-07-22T02:05:04;17.50;;;16.70;;
1995;SDS011;38556;47.068;15.408;2023-07-22T02:07:31;17.57;;;16.67;;
1995;SDS011;38556;47.068;15.408;2023-07-22T02:09:59;17.60;;;16.70;;
1995;SDS011;38556;47.068;15.408;2023-07-22T02:12:26;18.00;;;16.90;;
1995;SDS011;38556;47.068;15.408;2023-07-22T02:14:54;19.13;;;18.00;;
1995;SDS011;38556;47.068;15.408;2023-07-22T02:17:22;18.57;;;17.57;;
1995;SDS011;38556;47.068;15.408;2023-07-22T02:19:49;18.20;;;17.10;;
1995;SDS011;38556;47.068;15.408;2023-07-22T02:22:16;18.73;;;17.73;;
1995;SDS011;38556;47.068;15.408;2023-07-22T02:24:43;19.90;;;18.50;;
1995;SDS011;38556;47.068;15.408;2023-07-22T02:27:10;19.03;;;17.80;;
1995;SDS011;38556;47.068;15.408;2023-07-22T02:29:37;17.87;;;16.97;;
1995;SDS011;38556;47.068;15.408;2023-07-22T02:32:07;17.90;;;16.80;;
1995;SDS011;38556;47.068;15.408;2023-07-22T02:34:34;18.87;;;17.73;;
1995;SDS011;38556;47.068;15.408;2023-07-22T02:37:03;18.37;;;17.23;;
1995;SDS011;38556;47.068;15.408;2023-07-22T02:39:30;17.80;;;16.87;;
1995;SDS011;38556;47.068;15.408;2023-07-22T02:41:57;18.23;;;17.03;;
1995;SDS011;38556;47.068;15.408;2023-07-22T02:44:25;18.20;;;17.30;;
1995;SDS011;38556;47.068;15.408;2023-07-22T02:46:52;18.20;;;17.10;;
1995;SDS011;38556;47.068;15.408;2023-07-22T02:49:20;17.63;;;16.83;;
1995;SDS011;38556;47.068;15.408;2023-07-22T02:51:48;17.30;;;16.50;;
1995;SDS011;38556;47.068;15.408;2023-07-22T02:54:15;17.97;;;17.07;;
1995;SDS011;38556;47.068;15.408;2023-07-22T02:56:42;18.60;;;17.60;;
1995;SDS011;38556;47.068;15.408;2023-07-22T02:59:09;18.27;;;17.13;;
1995;SDS011;38556;47.068;15.408;2023-07-22T03:01:37;18.27;;;17.27;;
1995;SDS011;38556;47.068;15.408;2023-07-22T03:04:04;18.17;;;17.20;;
1995;SDS011;38556;47.068;15.408;2023-07-22T03:06:33;17.83;;;16.77;;
1995;SDS011;38556;47.068;15.408;2023-07-22T03:09:00;18.13;;;16.93;;
1995;SDS011;38556;47.068;15.408;2023-07-22T03:11:30;18.47;;;17.47;;
1995;SDS011;38556;47.068;15.408;2023-07-22T03:13:57;18.57;;;17.53;;
1995;SDS011;38556;47.068;15.408;2023-07-22T03:16:25;18.10;;;17.10;;
1995;SDS011;38556;47.068;15.408;2023-07-22T03:18:52;18.07;;;17.00;;
1995;SDS011;38556;47.068;15.408;2023-07-22T03:21:20;17.90;;;17.00;;
1995;SDS011;38556;47.068;15.408;2023-07-22T03:23:48;18.13;;;17.13;;
1995;SDS011;38556;47.068;15.408;2023-07-22T03:26:16;18.63;;;17.73;;
1995;SDS011;38556;47.068;15.408;2023-07-22T03:28:43;18.73;;;17.60;;
1995;SDS011;38556;47.068;15.408;2023-07-22T03:31:10;18.50;;;17.50;;
1995;SDS011;38556;47.068;15.408;2023-07-22T03:33:38;17.50;;;16.40;;
1995;SDS011;38556;47.068;15.408;2023-07-22T03:36:06;17.60;;;16.47;;
1995;SDS011;38556;47.068;15.408;2023-07-22T03:38:33;17.33;;;16.40;;
1995;SDS011;38556;47.068;15.408;2023-07-22T03:41:02;17.77;;;16.67;;
1995;SDS011;38556;47.068;15.408;2023-07-22T03:43:29;17.50;;;16.60;;
1995;SDS011;38556;47.068;15.408;2023-07-22T03:45:56;17.80;;;16.80;;
1995;SDS011;38556;47.068;15.408;2023-07-22T03:48:24;18.27;;;17.17;;
1995;SDS011;38556;47.068;15.408;2023-07-22T03:50:51;18.30;;;17.10;;
1995;SDS011;38556;47.068;15.408;2023-07-22T03:53:18;17.47;;;16.57;;
1995;SDS011;38556;47.068;15.408;2023-07-22T03:55:45;16.80;;;16.00;;
1995;SDS011;38556;47.068;15.408;2023-07-22T03:58:14;16.93;;;16.00;;
1995;SDS011;38556;47.068;15.408;2023-07-22T04:00:41;17.83;;;16.73;;
1995;SDS011;38556;47.068;15.408;2023-07-22T04:03:08;18.40;;;17.30;;
1995;SDS011;38556;47.068;15.408;2023-07-22T04:05:35;17.70;;;16.60;;
1995;SDS011;38556;47.068;15.408;2023-07-22T04:08:02;18.00;;;16.93;;
1995;SDS011;38556;47.068;15.408;2023-07-22T04:10:30;18.40;;;17.33;;
1995;SDS011;38556;47.068;15.408;2023-07-22T04:12:57;18.07;;;16.97;;
1995;SDS011;38556;47.068;15.408;2023-07-22T04:15:26;18.00;;;17.00;;
1995;SDS011;38556;47.068;15.408;2023-07-22T04:17:53;17.77;;;16.87;;
1995;SDS011;38556;47.068;15.408;2023-07-22T04:20:20;18.93;;;17.40;;
1995;SDS011;38556;47.068;15.408;2023-07-22T04:22:50;17.87;;;16.87;;
1995;SDS011;38556;47.068;15.408;2023-07-22T04:25:17;18.47;;;17.07;;
1995;SDS011;38556;47.068;15.408;2023-07-22T04:27:44;18.43;;;17.33;;
1995;SDS011;38556;47.068;15.408;2023-07-22T04:30:11;18.40;;;17.40;;
1995;SDS011;38556;47.068;15.408;2023-07-22T04:32:48;18.00;;;17.10;;
1995;SDS011;38556;47.068;15.408;2023-07-22T04:35:15;18.13;;;17.03;;
1995;SDS011;38556;47.068;15.408;2023-07-22T04:37:43;17.83;;;16.93;;
1995;SDS011;38556;47.068;15.408;2023-07-22T04:40:11;18.50;;;17.43;;
1995;SDS011;38556;47.068;15.408;2023-07-22T04:42:41;18.67;;;17.57;;
1995;SDS011;38556;47.068;15.408;2023-07-22T04:45:09;18.37;;;17.30;;
1995;SDS011;38556;47.068;15.408;2023-07-22T04:47:38;18.90;;;17.73;;
1995;SDS011;38556;47.068;15.408;2023-07-22T04:50:07;18.17;;;17.17;;
1995;SDS011;38556;47.068;15.408;2023-07-22T04:52:35;18.47;;;17.10;;
1995;SDS011;38556;47.068;15.408;2023-07-22T04:55:03;17.50;;;16.60;;
1995;SDS011;38556;47.068;15.408;2023-07-22T04:57:34;17.90;;;16.80;;
1995;SDS011;38556;47.068;15.408;2023-07-22T05:00:01;17.47;;;16.53;;
1995;SDS011;38556;47.068;15.408;2023-07-22T05:02:30;18.87;;;17.63;;
1995;SDS011;38556;47.068;15.408;2023-07-22T05:04:57;18.70;;;17.60;;
1995;SDS011;38556;47.068;15.408;2023-07-22T05:07:25;18.43;;;17.43;;
1995;SDS011;38556;47.068;15.408;2023-07-22T05:09:52;18.63;;;17.47;;
1995;SDS011;38556;47.068;15.408;2023-07-22T05:12:19;17.20;;;15.90;;
1995;SDS011;38556;47.068;15.408;2023-07-22T05:14:47;17.73;;;16.83;;
1995;SDS011;38556;47.068;15.408;2023-07-22T05:17:15;18.40;;;17.10;;
1995;SDS011;38556;47.068;15.408;2023-07-22T05:19:42;17.57;;;16.47;;
1995;SDS011;38556;47.068;15.408;2023-07-22T05:22:10;18.13;;;17.13;;
1995;SDS011;38556;47.068;15.408;2023-07-22T05:24:38;18.53;;;17.53;;
1995;SDS011;38556;47.068;15.408;2023-07-22T05:27:06;17.93;;;16.90;;
1995;SDS011;38556;47.068;15.408;2023-07-22T05:29:33;17.03;;;16.20;;
1995;SDS011;38556;47.068;15.408;2023-07-22T05:32:00;18.87;;;17.77;;
1995;SDS011;38556;47.068;15.408;2023-07-22T05:34:27;18.53;;;17.43;;
1995;SDS011;38556;47.068;15.408;2023-07-22T05:36:55;17.10;;;16.30;;
1995;SDS011;38556;47.068;15.408;2023-07-22T05:39:22;18.57;;;17.50;;
1995;SDS011;38556;47.068;15.408;2023-07-22T05:41:52;18.43;;;17.13;;
1995;SDS011;38556;47.068;15.408;2023-07-22T05:44:19;18.20;;;17.30;;
1995;SDS011;38556;47.068;15.408;2023-07-22T05:46:46;18.23;;;17.23;;
1995;SDS011;38556;47.068;15.408;2023-07-22T05:49:13;18.30;;;16.93;;
1995;SDS011;38556;47.068;15.408;2023-07-22T05:51:41;17.63;;;16.60;;
1995;SDS011;38556;47.068;15.408;2023-07-22T05:54:08;17.80;;;17.00;;
1995;SDS011;38556;47.068;15.408;2023-07-22T05:56:37;18.57;;;17.57;;
1995;SDS011;38556;47.068;15.408;2023-07-22T05:59:05;23.90;;;22.27;;
1995;SDS011;38556;47.068;15.408;2023-07-22T06:01:33;19.40;;;18.40;;
1995;SDS011;38556;47.068;15.408;2023-07-22T06:04:00;18.53;;;17.43;;
1995;SDS011;38556;47.068;15.408;2023-07-22T06:06:27;18.87;;;17.80;;
1995;SDS011;38556;47.068;15.408;2023-07-22T06:08:54;16.70;;;15.90;;
1995;SDS011;38556;47.068;15.408;2023-07-22T06:11:22;16.30;;;15.60;;
1995;SDS011;38556;47.068;15.408;2023-07-22T06:13:49;16.90;;;16.10;;
1995;SDS011;38556;47.068;15.408;2023-07-22T06:16:18;17.57;;;16.63;;
1995;SDS011;38556;47.068;15.408;2023-07-22T06:18:45;17.80;;;16.80;;
1995;SDS011;38556;47.068;15.408;2023-07-22T06:21:13;18.10;;;17.10;;
1995;SDS011;38556;47.068;15.408;2023-07-22T06:23:40;18.97;;;17.87;;
1995;SDS011;38556;47.068;15.408;2023-07-22T06:26:08;17.70;;;16.80;;
1995;SDS011;38556;47.068;15.408;2023-07-22T06:28:35;18.57;;;17.50;;
1995;SDS011;38556;47.068;15.408;2023-07-22T06:31:03;19.83;;;18.63;;
1995;SDS011;38556;47.068;15.408;2023-07-22T06:33:31;20.90;;;19.70;;
1995;SDS011;38556;47.068;15.408;2023-07-22T06:35:59;19.63;;;18.53;;
1995;SDS011;38556;47.068;15.408;2023-07-22T06:38:26;19.90;;;18.80;;
1995;SDS011;38556;47.068;15.408;2023-07-22T06:40:54;19.33;;;18.27;;
1995;SDS011;38556;47.068;15.408;2023-07-22T06:43:22;19.40;;;18.30;;
1995;SDS011;38556;47.068;15.408;2023-07-22T06:45:50;19.60;;;18.60;;
1995;SDS011;38556;47.068;15.408;2023-07-22T06:48:17;20.60;;;19.30;;
1995;SDS011;38556;47.068;15.408;2023-07-22T06:50:48;18.43;;;17.40;;
1995;SDS011;38556;47.068;15.408;2023-07-22T06:53:15;20.00;;;18.67;;
1995;SDS011;38556;47.068;15.408;2023-07-22T06:55:48;19.30;;;18.30;;
1995;SDS011;38556;47.068;15.408;2023-07-22T06:58:16;20.43;;;19.10;;
1995;SDS011;38556;47.068;15.408;2023-07-22T07:00:43;19.43;;;18.43;;
1995;SDS011;38556;47.068;15.408;2023-07-22T07:03:10;19.37;;;18.27;;
1995;SDS011;38556;47.068;15.408;2023-07-22T07:05:38;19.70;;;18.60;;
1995;SDS011;38556;47.068;15.408;2023-07-22T07:08:08;19.60;;;18.47;;
1995;SDS011;38556;47.068;15.408;2023-07-22T07:10:37;20.23;;;18.93;;
1995;SDS011;38556;47.068;15.408;2023-07-22T07:13:05;19.30;;;18.27;;
1995;SDS011;38556;47.068;15.408;2023-07-22T07:15:34;18.93;;;18.03;;
1995;SDS011;38556;47.068;15.408;2023-07-22T07:18:02;18.67;;;17.67;;
1995;SDS011;38556;47.068;15.408;2023-07-22T07:20:29;20.07;;;18.77;;
1995;SDS011;38556;47.068;15.408;2023-07-22T07:22:56;19.93;;;18.87;;
1995;SDS011;38556;47.068;15.408;2023-07-22T07:25:25;19.33;;;18.13;;
1995;SDS011;38556;47.068;15.408;2023-07-22T07:27:52;19.90;;;18.63;;
1995;SDS011;38556;47.068;15.408;2023-07-22T07:30:19;19.00;;;18.00;;
1995;SDS011;38556;47.068;15.408;2023-07-22T07:32:47;19.10;;;17.90;;
1995;SDS011;38556;47.068;15.408;2023-07-22T07:35:14;20.10;;;18.90;;
1995;SDS011;38556;47.068;15.408;2023-07-22T07:37:42;20.47;;;18.83;;
1995;SDS011;38556;47.068;15.408;2023-07-22T07:40:09;21.60;;;20.40;;
1995;SDS011;38556;47.068;15.408;2023-07-22T07:42:38;20.50;;;19.40;;
1995;SDS011;38556;47.068;15.408;2023-07-22T07:45:07;21.30;;;20.00;;
1995;SDS011;38556;47.068;15.408;2023-07-22T07:47:34;20.10;;;19.10;;
1995;SDS011;38556;47.068;15.408;2023-07-22T07:50:01;20.10;;;19.10;;
1995;SDS011;38556;47.068;15.408;2023-07-22T07:52:30;20.97;;;19.40;;
1995;SDS011;38556;47.068;15.408;2023-07-22T07:54:57;21.10;;;19.70;;
1995;SDS011;38556;47.068;15.408;2023-07-22T07:57:24;21.63;;;20.20;;
1995;SDS011;38556;47.068;15.408;2023-07-22T07:59:53;19.83;;;18.70;;
1995;SDS011;38556;47.068;15.408;2023-07-22T08:02:20;21.37;;;20.07;;
1995;SDS011;38556;47.068;15.408;2023-07-22T08:04:47;19.50;;;18.40;;
1995;SDS011;38556;47.068;15.408;2023-07-22T08:07:15;19.93;;;18.80;;
1995;SDS011;38556;47.068;15.408;2023-07-22T08:09:42;19.67;;;18.57;;
1995;SDS011;38556;47.068;15.408;2023-07-22T08:12:14;18.83;;;17.93;;
1995;SDS011;38556;47.068;15.408;2023-07-22T08:14:41;19.33;;;18.10;;
1995;SDS011;38556;47.068;15.408;2023-07-22T08:17:09;19.60;;;18.60;;
1995;SDS011;38556;47.068;15.408;2023-07-22T08:19:37;18.60;;;17.70;;
1995;SDS011;38556;47.068;15.408;2023-07-22T08:22:04;18.90;;;17.73;;
1995;SDS011;38556;47.068;15.408;2023-07-22T08:24:32;19.30;;;18.30;;
1995;SDS011;38556;47.068;15.408;2023-07-22T08:26:59;19.30;;;18.20;;
1995;SDS011;38556;47.068;15.408;2023-07-22T08:29:26;18.60;;;17.70;;
1995;SDS011;38556;47.068;15.408;2023-07-22T08:31:53;19.57;;;18.07;;
1995;SDS011;38556;47.068;15.408;2023-07-22T08:34:22;19.90;;;18.80;;
1995;SDS011;38556;47.068;15.408;2023-07-22T08:36:49;19.13;;;18.13;;
1995;SDS011;38556;47.068;15.408;2023-07-22T08:39:16;18.43;;;17.50;;
1995;SDS011;38556;47.068;15.408;2023-07-22T08:41:45;18.27;;;17.23;;
1995;SDS011;38556;47.068;15.408;2023-07-22T08:44:16;18.80;;;17.90;;
1995;SDS011;38556;47.068;15.408;2023-07-22T08:46:46;18.50;;;17.30;;
1995;SDS011;38556;47.068;15.408;2023-07-22T08:49:16;19.10;;;18.00;;
1995;SDS011;38556;47.068;15.408;2023-07-22T08:51:45;19.03;;;18.10;;
1995;SDS011;38556;47.068;15.408;2023-07-22T08:54:13;18.43;;;17.53;;
1995;SDS011;38556;47.068;15.408;2023-07-22T08:56:42;20.10;;;19.00;;
1995;SDS011;38556;47.068;15.408;2023-07-22T08:59:09;18.13;;;17.23;;
1995;SDS011;38556;47.068;15.408;2023-07-22T09:01:37;19.07;;;17.97;;
1995;SDS011;38556;47.068;15.408;2023-07-22T09:04:05;18.97;;;17.97;;
1995;SDS011;38556;47.068;15.408;2023-07-22T09:06:34;18.43;;;17.43;;
1995;SDS011;38556;47.068;15.408;2023-07-22T09:09:03;18.00;;;17.10;;
1995;SDS011;38556;47.068;15.408;2023-07-22T09:11:33;19.50;;;18.30;;
1995;SDS011;38556;47.068;15.408;2023-07-22T09:14:02;18.70;;;17.70;;
1995;SDS011;38556;47.068;15.408;2023-07-22T09:16:30;19.20;;;18.10;;
1995;SDS011;38556;47.068;15.408;2023-07-22T09:18:58;18.37;;;17.47;;
1995;SDS011;38556;47.068;15.408;2023-07-22T09:21:25;18.37;;;17.37;;
1995;SDS011;38556;47.068;15.408;2023-07-22T09:23:53;18.60;;;17.60;;
1995;SDS011;38556;47.068;15.408;2023-07-22T09:26:22;19.47;;;18.30;;
1995;SDS011;38556;47.068;15.408;2023-07-22T09:28:50;19.13;;;17.83;;
1995;SDS011;38556;47.068;15.408;2023-07-22T09:31:18;19.00;;;18.00;;
1995;SDS011;38556;47.068;15.408;2023-07-22T09:33:46;19.60;;;18.50;;
1995;SDS011;38556;47.068;15.408;2023-07-22T09:36:14;19.73;;;18.67;;
1995;SDS011;38556;47.068;15.408;2023-07-22T09:38:43;18.60;;;17.60;;
1995;SDS011;38556;47.068;15.408;2023-07-22T09:41:10;17.80;;;17.00;;
1995;SDS011;38556;47.068;15.408;2023-07-22T09:43:40;18.33;;;17.43;;
1995;SDS011;38556;47.068;15.408;2023-07-22T09:46:08;18.70;;;17.73;;
1995;SDS011;38556;47.068;15.408;2023-07-22T09:48:40;17.77;;;16.97;;
1995;SDS011;38556;47.068;15.408;2023-07-22T09:51:11;18.23;;;17.33;;
1995;SDS011;38556;47.068;15.408;2023-07-22T09:53:46;18.10;;;17.10;;
1995;SDS011;38556;47.068;15.408;2023-07-22T09:56:14;20.03;;;18.90;;
1995;SDS011;38556;47.068;15.408;2023-07-22T09:58:43;19.50;;;18.50;;
1995;SDS011;38556;47.068;15.408;2023-07-22T10:01:13;19.67;;;18.47;;
1995;SDS011;38556;47.068;15.408;2023-07-22T10:03:44;18.63;;;17.73;;
1995;SDS011;38556;47.068;15.408;2023-07-22T10:06:11;18.40;;;17.40;;
1995;SDS011;38556;47.068;15.408;2023-07-22T10:08:41;17.47;;;16.67;;
1995;SDS011;38556;47.068;15.408;2023-07-22T10:11:11;18.50;;;17.60;;
1995;SDS011;38556;47.068;15.408;2023-07-22T10:13:40;19.17;;;18.17;;
1995;SDS011;38556;47.068;15.408;2023-07-22T10:16:08;19.67;;;18.67;;
1995;SDS011;38556;47.068;15.408;2023-07-22T10:18:36;18.63;;;17.73;;
1995;SDS011;38556;47.068;15.408;2023-07-22T10:21:07;18.40;;;17.50;;
1995;SDS011;38556;47.068;15.408;2023-07-22T10:23:35;18.53;;;17.53;;
1995;SDS011;38556;47.068;15.408;2023-07-22T10:26:04;19.63;;;18.60;;
1995;SDS011;38556;47.068;15.408;2023-07-22T10:28:32;19.33;;;18.40;;
1995;SDS011;38556;47.068;15.408;2023-07-22T10:30:59;19.33;;;18.33;;
1995;SDS011;38556;47.068;15.408;2023-07-22T10:33:29;18.60;;;17.60;;
1995;SDS011;38556;47.068;15.408;2023-07-22T10:36:04;18.80;;;17.87;;
1995;SDS011;38556;47.068;15.408;2023-07-22T10:38:33;18.70;;;17.50;;
1995;SDS011;38556;47.068;15.408;2023-07-22T10:41:01;18.40;;;17.50;;
1995;SDS011;38556;47.068;15.408;2023-07-22T10:43:39;19.03;;;18.13;;
1995;SDS011;38556;47.068;15.408;2023-07-22T10:46:08;18.00;;;17.10;;
1995;SDS011;38556;47.068;15.408;2023-07-22T10:48:40;19.03;;;18.03;;
1995;SDS011;38556;47.068;15.408;2023-07-22T10:51:09;18.43;;;17.30;;
1995;SDS011;38556;47.068;15.408;2023-07-22T10:53:40;18.00;;;17.10;;
1995;SDS011;38556;47.068;15.408;2023-07-22T10:56:13;18.90;;;17.90;;
1995;SDS011;38556;47.068;15.408;2023-07-22T10:58:55;19.03;;;18.13;;
1995;SDS011;38556;47.068;15.408;2023-07-22T11:01:36;18.47;;;17.57;;
1995;SDS011;38556;47.068;15.408;2023-07-22T11:04:06;19.03;;;18.13;;
1995;SDS011;38556;47.068;15.408;2023-07-22T11:06:39;19.40;;;18.30;;
1995;SDS011;38556;47.068;15.408;2023-07-22T11:09:35;19.20;;;18.20;;
1995;SDS011;38556;47.068;15.408;2023-07-22T11:12:07;18.43;;;17.53;;
1995;SDS011;38556;47.068;15.408;2023-07-22T11:14:38;19.87;;;18.87;;
1995;SDS011;38556;47.068;15.408;2023-07-22T11:17:06;19.00;;;18.10;;
1995;SDS011;38556;47.068;15.408;2023-07-22T11:19:36;17.70;;;16.90;;
1995;SDS011;38556;47.068;15.408;2023-07-22T11:22:04;19.33;;;18.13;;
1995;SDS011;38556;47.068;15.408;2023-07-22T11:24:32;18.90;;;18.00;;
1995;SDS011;38556;47.068;15.408;2023-07-22T11:27:02;19.07;;;18.07;;
1995;SDS011;38556;47.068;15.408;2023-07-22T11:29:31;18.13;;;17.23;;
1995;SDS011;38556;47.068;15.408;2023-07-22T11:31:58;18.60;;;17.50;;
1995;SDS011;38556;47.068;15.408;2023-07-22T11:34:26;19.10;;;17.90;;
1995;SDS011;38556;47.068;15.408;2023-07-22T11:36:55;18.37;;;17.43;;
1995;SDS011;38556;47.068;15.408;2023-07-22T11:39:24;18.53;;;17.53;;
1995;SDS011;38556;47.068;15.408;2023-07-22T11:41:52;18.67;;;17.67;;
1995;SDS011;38556;47.068;15.408;2023-07-22T11:44:19;19.30;;;18.20;;
1995;SDS011;38556;47.068;15.408;2023-07-22T11:46:51;18.80;;;17.70;;
1995;SDS011;38556;47.068;15.408;2023-07-22T11:49:24;17.70;;;16.80;;
1995;SDS011;38556;47.068;15.408;2023-07-22T11:52:01;18.83;;;17.70;;
1995;SDS011;38556;47.068;15.408;2023-07-22T11:54:30;19.20;;;18.20;;
1995;SDS011;38556;47.068;15.408;2023-07-22T11:57:09;16.90;;;16.10;;
1995;SDS011;38556;47.068;15.408;2023-07-22T11:59:37;18.50;;;17.60;;
1995;SDS011;38556;47.068;15.408;2023-07-22T12:02:05;18.87;;;17.97;;
1995;SDS011;38556;47.068;15.408;2023-07-22T12:04:33;19.40;;;18.20;;
1995;SDS011;38556;47.068;15.408;2023-07-22T12:07:02;18.50;;;17.60;;
1995;SDS011;38556;47.068;15.408;2023-07-22T12:09:30;18.23;;;17.20;;
1995;SDS011;38556;47.068;15.408;2023-07-22T12:11:58;19.00;;;18.00;;
1995;SDS011;38556;47.068;15.408;2023-07-22T12:14:32;18.63;;;17.63;;
1995;SDS011;38556;47.068;15.408;2023-07-22T12:17:02;18.87;;;17.87;;
1995;SDS011;38556;47.068;15.408;2023-07-22T12:19:34;19.20;;;18.10;;
1995;SDS011;38556;47.068;15.408;2023-07-22T12:22:04;19.07;;;18.10;;
1995;SDS011;38556;47.068;15.408;2023-07-22T12:24:31;19.87;;;18.70;;
1995;SDS011;38556;47.068;15.408;2023-07-22T12:26:59;19.67;;;18.33;;
1995;SDS011;38556;47.068;15.408;2023-07-22T12:29:26;18.43;;;17.33;;
1995;SDS011;38556;47.068;15.408;2023-07-22T12:31:54;19.13;;;18.07;;
1995;SDS011;38556;47.068;15.408;2023-07-22T12:34:21;20.43;;;19.23;;
1995;SDS011;38556;47.068;15.408;2023-07-22T12:36:49;90.87;;;70.17;;
1995;SDS011;38556;47.068;15.408;2023-07-22T12:39:17;226.00;;;171.73;;
1995;SDS011;38556;47.068;15.408;2023-07-22T12:41:45;96.60;;;61.67;;
1995;SDS011;38556;47.068;15.408;2023-07-22T12:44:11;52.90;;;43.43;;
1995;SDS011;38556;47.068;15.408;2023-07-22T12:46:39;24.80;;;22.70;;
1995;SDS011;38556;47.068;15.408;2023-07-22T12:49:08;30.47;;;27.60;;
1995;SDS011;38556;47.068;15.408;2023-07-22T12:51:35;28.30;;;26.03;;
1995;SDS011;38556;47.068;15.408;2023-07-22T12:54:02;19.13;;;17.93;;
1995;SDS011;38556;47.068;15.408;2023-07-22T12:56:31;23.87;;;21.97;;
1995;SDS011;38556;47.068;15.408;2023-07-22T12:58:58;30.67;;;27.70;;
1995;SDS011;38556;47.068;15.408;2023-07-22T13:01:26;32.10;;;29.20;;
1995;SDS011;38556;47.068;15.408;2023-07-22T13:03:53;22.23;;;20.63;;
1995;SDS011;38556;47.068;15.408;2023-07-22T13:06:22;26.40;;;24.43;;
1995;SDS011;38556;47.068;15.408;2023-07-22T13:08:49;24.33;;;22.47;;
1995;SDS011;38556;47.068;15.408;2023-07-22T13:11:17;21.90;;;20.40;;
1995;SDS011;38556;47.068;15.408;2023-07-22T13:13:46;23.40;;;21.60;;
1995;SDS011;38556;47.068;15.408;2023-07-22T13:16:13;20.63;;;19.43;;
1995;SDS011;38556;47.068;15.408;2023-07-22T13:18:40;20.60;;;19.40;;
1995;SDS011;38556;47.068;15.408;2023-07-22T13:21:08;21.23;;;19.83;;
1995;SDS011;38556;47.068;15.408;2023-07-22T13:23:35;21.33;;;19.83;;
1995;SDS011;38556;47.068;15.408;2023-07-22T13:26:03;21.40;;;19.83;;
1995;SDS011;38556;47.068;15.408;2023-07-22T13:28:30;19.80;;;18.70;;
1995;SDS011;38556;47.068;15.408;2023-07-22T13:30:59;21.10;;;19.90;;
1995;SDS011;38556;47.068;15.408;2023-07-22T13:33:26;21.37;;;20.07;;
1995;SDS011;38556;47.068;15.408;2023-07-22T13:35:53;20.67;;;19.53;;
1995;SDS011;38556;47.068;15.408;2023-07-22T13:38:21;20.93;;;19.60;;
1995;SDS011;38556;47.068;15.408;2023-07-22T13:40:48;18.80;;;17.80;;
1995;SDS011;38556;47.068;15.408;2023-07-22T13:43:15;18.80;;;17.80;;
1995;SDS011;38556;47.068;15.408;2023-07-22T13:45:42;20.50;;;19.30;;
1995;SDS011;38556;47.068;15.408;2023-07-22T13:48:11;20.03;;;18.83;;
1995;SDS011;38556;47.068;15.408;2023-07-22T13:50:38;19.13;;;18.13;;
1995;SDS011;38556;47.068;15.408;2023-07-22T13:53:07;19.60;;;18.50;;
1995;SDS011;38556;47.068;15.408;2023-07-22T13:55:35;19.70;;;18.60;;
1995;SDS011;38556;47.068;15.408;2023-07-22T13:58:02;19.67;;;18.57;;
1995;SDS011;38556;47.068;15.408;2023-07-22T14:00:30;19.57;;;18.37;;
1995;SDS011;38556;47.068;15.408;2023-07-22T14:02:57;19.60;;;18.40;;
1995;SDS011;38556;47.068;15.408;2023-07-22T14:05:26;19.00;;;18.10;;
1995;SDS011;38556;47.068;15.408;2023-07-22T14:07:53;19.07;;;17.93;;
1995;SDS011;38556;47.068;15.408;2023-07-22T14:10:21;19.20;;;18.00;;
1995;SDS011;38556;47.068;15.408;2023-07-22T14:12:48;19.83;;;18.40;;
1995;SDS011;38556;47.068;15.408;2023-07-22T14:15:16;18.80;;;17.67;;
1995;SDS011;38556;47.068;15.408;2023-07-22T14:17:43;18.37;;;17.43;;
1995;SDS011;38556;47.068;15.408;2023-07-22T14:20:11;17.70;;;16.80;;
1995;SDS011;38556;47.068;15.408;2023-07-22T14:22:40;18.00;;;17.00;;
1995;SDS011;38556;47.068;15.408;2023-07-22T14:25:09;19.00;;;18.00;;
1995;SDS011;38556;47.068;15.408;2023-07-22T14:27:37;19.13;;;18.03;;